Aeroporto :
LOGIN :

Iscrizione | Disclaimer

   EN    FR    IT 

 










Sommario :    VFR   VFR Marginale   IFR   IFR Intensivo   IFR Molto Intensivo
Visibilità : 
Base nubi : 
>= 8 km
>= 3000ft
5 / 8 km
1000 / 3000 ft
1500m / 5 km
500 / 1000 ft
800 / 1500m
200 / 500 ft
< 800m
< 200 ft
Simboli :   Temporali  Nebbia  Neve Forte  Precipitazioni Forti  Vento > 20 kt
SIGMETs :   Varie  Temporali  Ghiacco  Turbolenza  Onda orograficha  Ceneri Vulcaniche






- Altitudine del aeroporto : 15 ft
- Codice IATA : JKH


LGHI - Omiros

ULTIMO METAR :
  • 020650Z VRB03KT 9999 FEW018 SCT025 12/05 Q1007

METARs OBSOLETI :
  • 020550Z 32008KT 9999 FEW018 SCT025 11/05 Q1006
  • 020450Z 30008KT 9999 -RA FEW018 BKN025 11/07 Q1006

TAF TAF LGHI
Valido dal 02 a 06 ore il 02 a 15 ore UTC


020500Z 0206/0215 20012KT 9999 SCT020 BKN040
PROB40
TEMPO 0206/0215 5000 RA FEW018TCU BKN020
PROB40
TEMPO 0206/0212 3000 TSRA SCT010 FEW018CB BKN020
BECMG 0206/0208 29013KT
TEMPO 0206/0212 28013G23KT



MetMap, La meteo Aeronautica in un colpo d'occhio ! - Copyright ORBIFLY Dicembre 2007 - Disclaimer

ORBIFLY MET'MAP TEAM :

Programmazione e sviluppo : Alexandra Zaïnal
Concezione : Baudouin d'Aumeries
Aiuto per la programmazione : Marc-Olivier Méhu
Supporto tecnico e logistico : Manuel Goepfert
Aiuto per la traduzione : Arnaldo La Scala

Contatto : metmap@orbifly.com




FONTI E CREDITI :

   NOAA